Time;durP1;ratioP1;P1;durP2;ratioP2;P2;SDS_P1;SDS_P2;PMS_P1;PMS_P2;Temp;Humidity;BMP_temperature;BMP_pressure;BME280_temperature;BME280_humidity;BME280_pressure;Samples;Min_cycle;Max_cycle;Signal;HPM_P1;HPM_P2
2021/03/28 00:02:27;;;;;;;48.42;28.75;;;9.20;98.90;;;;;;4967757;28;20034;-78
2021/03/28 00:05:26;;;;;;;53.00;32.33;;;9.30;98.20;;;;;;4985279;28;20089;-81
2021/03/28 00:07:54;;;;;;;52.88;30.85;;;9.20;99.50;;;;;;4984875;28;20023;-79
2021/03/28 00:10:40;;;;;;;52.28;32.03;;;9.20;99.80;;;;;;4984153;28;20033;-77
2021/03/28 00:13:24;;;;;;;53.75;32.35;;;8.90;99.90;;;;;;4983883;28;20367;-77
2021/03/28 00:15:56;;;;;;;61.83;34.42;;;8.90;99.90;;;;;;4984627;28;20129;-78
2021/03/28 00:18:51;;;;;;;61.15;34.20;;;9.00;99.90;;;;;;4966876;28;20046;-80
2021/03/28 00:21:19;;;;;;;58.50;32.67;;;9.00;99.90;;;;;;4994837;28;20132;-77
2021/03/28 00:23:52;;;;;;;59.78;34.60;;;8.50;99.90;;;;;;5001833;28;20014;-78
2021/03/28 00:26:59;;;;;;;55.38;32.95;;;8.60;99.90;;;;;;4984032;28;20111;-79
2021/03/28 00:29:27;;;;;;;60.05;35.15;;;8.70;99.90;;;;;;4985261;28;20026;-78
2021/03/28 00:32:09;;;;;;;58.20;31.58;;;8.60;99.90;;;;;;5002187;28;20022;-78
2021/03/28 00:34:39;;;;;;;54.28;31.48;;;8.50;99.90;;;;;;4999823;28;20033;-78
2021/03/28 00:37:08;;;;;;;51.08;30.90;;;8.40;99.90;;;;;;5002848;28;20053;-79
2021/03/28 00:39:50;;;;;;;47.40;30.27;;;8.30;99.90;;;;;;5004006;28;20025;-79
2021/03/28 00:42:40;;;;;;;51.40;29.90;;;8.50;99.90;;;;;;4999436;28;20018;-79
2021/03/28 00:45:57;;;;;;;51.05;31.13;;;8.30;99.90;;;;;;4985317;28;20022;-78
2021/03/28 00:48:27;;;;;;;46.35;28.27;;;8.30;99.90;;;;;;4970146;28;20113;-80
2021/03/28 00:51:14;;;;;;;45.53;26.80;;;8.00;99.90;;;;;;5010942;28;20026;-79
2021/03/28 00:54:10;;;;;;;41.67;25.15;;;8.20;99.90;;;;;;5013321;28;20398;-80
2021/03/28 00:56:55;;;;;;;37.72;24.70;;;8.20;99.90;;;;;;4967643;28;20158;-78
2021/03/28 00:59:27;;;;;;;44.20;25.38;;;8.00;99.90;;;;;;4973218;28;20128;-80
2021/03/28 01:02:14;;;;;;;36.92;24.63;;;7.90;99.90;;;;;;4968546;28;20042;-80
2021/03/28 01:05:07;;;;;;;37.85;25.25;;;7.90;99.90;;;;;;5000380;28;20022;-78
2021/03/28 01:07:33;;;;;;;48.60;24.85;;;7.80;99.90;;;;;;4983912;28;20072;-81
2021/03/28 01:10:40;;;;;;;43.78;25.17;;;8.00;99.90;;;;;;4996892;28;20027;-80
2021/03/28 01:13:27;;;;;;;36.42;23.75;;;8.20;99.90;;;;;;4993203;28;20470;-79
2021/03/28 01:16:15;;;;;;;37.85;24.00;;;8.20;99.90;;;;;;4993578;28;20481;-80
2021/03/28 01:19:24;;;;;;;40.30;26.73;;;8.00;99.90;;;;;;4993462;28;20026;-80
2021/03/28 01:22:26;;;;;;;41.33;23.45;;;8.10;99.90;;;;;;4978022;28;20066;-78
2021/03/28 01:24:52;;;;;;;39.10;22.83;;;8.10;99.90;;;;;;4973712;28;20102;-78
2021/03/28 01:27:25;;;;;;;39.13;22.52;;;8.10;99.90;;;;;;4974542;28;20106;-77
2021/03/28 01:30:16;;;;;;;39.33;24.33;;;8.20;99.90;;;;;;4973377;28;20381;-80
2021/03/28 01:32:44;;;;;;;;;;;8.20;99.90;;;;;;4974227;28;20019;-80
2021/03/28 01:35:10;;;;;;;39.45;22.80;;;7.90;99.90;;;;;;4974161;28;19961;-81
2021/03/28 01:37:48;;;;;;;39.65;24.30;;;7.60;99.90;;;;;;4974183;28;20474;-80
2021/03/28 01:40:19;;;;;;;39.35;24.20;;;7.70;99.90;;;;;;4974191;28;20022;-81
2021/03/28 01:43:09;;;;;;;40.05;23.60;;;6.80;99.90;;;;;;4956783;28;20180;-82
2021/03/28 01:45:53;;;;;;;34.10;22.50;;;7.00;99.90;;;;;;4974017;28;20030;-82
2021/03/28 01:48:36;;;;;;;36.42;23.48;;;7.40;99.90;;;;;;4973816;28;20039;-81
2021/03/28 01:51:36;;;;;;;40.38;23.23;;;7.60;99.90;;;;;;4973540;28;20086;-82
2021/03/28 01:54:42;;;;;;;38.63;24.05;;;7.50;99.90;;;;;;4956271;28;20034;-81
2021/03/28 01:57:08;;;;;;;31.70;20.55;;;7.60;99.90;;;;;;4973804;28;20539;-80
2021/03/28 01:59:42;;;;;;;38.83;22.67;;;7.70;99.90;;;;;;4978505;28;20050;-81
2021/03/28 02:02:19;;;;;;;37.90;23.95;;;7.30;99.90;;;;;;4975319;28;20026;-81
2021/03/28 02:05:04;;;;;;;36.25;23.70;;;7.50;99.90;;;;;;4992915;28;20038;-79
2021/03/28 02:07:52;;;;;;;39.42;23.17;;;7.60;99.90;;;;;;4992681;28;20034;-79
2021/03/28 02:10:46;;;;;;;40.42;25.27;;;7.70;99.90;;;;;;4992906;28;20026;-81
2021/03/28 02:13:42;;;;;;;37.65;23.58;;;7.50;99.90;;;;;;4992643;28;20033;-79
2021/03/28 02:16:27;;;;;;;36.40;23.00;;;7.60;99.90;;;;;;4992543;28;20417;-76
2021/03/28 02:19:09;;;;;;;35.90;22.52;;;7.50;99.90;;;;;;4992563;28;20026;-77
2021/03/28 02:22:11;;;;;;;36.50;23.08;;;7.40;99.90;;;;;;5004793;28;20136;-78
2021/03/28 02:24:37;;;;;;;37.20;22.67;;;7.20;99.90;;;;;;5011722;28;20105;-77
2021/03/28 02:27:43;;;;;;;36.22;22.70;;;7.50;99.90;;;;;;5011980;28;20105;-78
2021/03/28 02:30:09;;;;;;;37.08;22.30;;;7.40;99.90;;;;;;5011599;28;20495;-79
2021/03/28 02:32:38;;;;;;;39.78;22.60;;;7.50;99.90;;;;;;5012142;28;20033;-79
2021/03/28 02:35:34;;;;;;;33.50;21.77;;;7.50;99.90;;;;;;5012394;28;20081;-79
2021/03/28 02:38:14;;;;;;;35.25;21.90;;;7.60;99.90;;;;;;5011858;28;20177;-78
2021/03/28 02:41:00;;;;;;;37.53;22.30;;;7.50;99.90;;;;;;5011869;28;20045;-78
2021/03/28 02:43:51;;;;;;;36.30;22.85;;;7.40;99.90;;;;;;5001362;28;20045;-79
2021/03/28 02:46:26;;;;;;;33.60;20.55;;;7.50;99.90;;;;;;4994395;28;20060;-79
2021/03/28 02:49:29;;;;;;;37.85;22.08;;;7.60;99.90;;;;;;5011598;28;20033;-77
2021/03/28 02:52:23;;;;;;;32.38;21.40;;;7.60;99.90;;;;;;5011784;28;20050;-78
2021/03/28 02:55:37;;;;;;;30.48;20.77;;;7.20;99.90;;;;;;5011608;28;20022;-78
2021/03/28 02:58:09;;;;;;;36.85;20.80;;;7.30;99.90;;;;;;4985471;28;20080;-77
2021/03/28 03:01:12;;;;;;;32.88;20.00;;;7.10;99.90;;;;;;4998789;28;20038;-78
2021/03/28 03:03:48;;;;;;;38.35;22.67;;;7.00;99.90;;;;;;4992121;28;20381;-77
2021/03/28 03:06:32;;;;;;;36.53;22.02;;;6.90;99.90;;;;;;4975241;28;20612;-78
2021/03/28 03:09:19;;;;;;;35.05;22.02;;;6.80;99.90;;;;;;4978294;28;20030;-77
2021/03/28 03:12:22;;;;;;;34.97;22.23;;;6.50;99.90;;;;;;4978174;28;20026;-79
2021/03/28 03:15:14;;;;;;;32.17;22.02;;;6.70;99.90;;;;;;4995583;28;20037;-80
2021/03/28 03:18:14;;;;;;;33.20;21.05;;;6.90;99.90;;;;;;4978390;28;20062;-77
2021/03/28 03:20:58;;;;;;;33.53;20.58;;;6.90;99.90;;;;;;4995076;28;20073;-79
2021/03/28 03:23:49;;;;;;;36.25;21.00;;;6.60;99.90;;;;;;4995617;28;20034;-79
2021/03/28 03:27:08;;;;;;;33.83;21.48;;;6.40;99.90;;;;;;4995504;28;20018;-78
2021/03/28 03:29:59;;;;;;;34.03;21.58;;;6.40;99.90;;;;;;4995736;28;20378;-78
2021/03/28 03:32:43;;;;;;;33.55;21.77;;;6.20;99.90;;;;;;4995817;28;20080;-79
2021/03/28 03:35:33;;;;;;;28.20;19.80;;;6.00;99.90;;;;;;4977852;28;20038;-79
2021/03/28 03:38:18;;;;;;;31.08;20.23;;;6.70;99.90;;;;;;4995653;28;20043;-77
2021/03/28 03:41:03;;;;;;;33.90;20.63;;;6.80;99.90;;;;;;4994743;28;20042;-76
2021/03/28 03:43:40;;;;;;;30.80;21.35;;;6.90;99.90;;;;;;4995652;28;20018;-76
2021/03/28 03:46:38;;;;;;;39.92;21.15;;;7.00;99.90;;;;;;4995255;28;20054;-77
2021/03/28 03:49:22;;;;;;;29.10;20.83;;;7.10;99.90;;;;;;4994012;28;20038;-78
2021/03/28 03:52:19;;;;;;;31.88;19.85;;;7.10;99.90;;;;;;4994972;28;20030;-77
2021/03/28 03:55:04;;;;;;;30.10;20.05;;;7.00;99.90;;;;;;4977630;28;20022;-78
2021/03/28 03:57:42;;;;;;;33.42;21.02;;;6.80;99.90;;;;;;4995301;28;20058;-79
2021/03/28 04:00:24;;;;;;;31.23;20.95;;;6.90;99.90;;;;;;4995040;28;20046;-79
2021/03/28 04:03:11;;;;;;;35.35;21.02;;;6.90;99.90;;;;;;4995588;28;20019;-80
2021/03/28 04:05:58;;;;;;;34.70;22.25;;;6.90;99.90;;;;;;4995306;28;20054;-80
2021/03/28 04:08:49;;;;;;;35.90;21.15;;;5.70;99.90;;;;;;4977909;28;20062;-81
2021/03/28 04:11:26;;;;;;;34.15;21.95;;;6.20;99.90;;;;;;4977830;28;20027;-81
2021/03/28 04:14:29;;;;;;;32.78;21.05;;;6.50;99.90;;;;;;4994988;28;20162;-78
2021/03/28 04:17:05;;;;;;;32.53;21.20;;;6.70;99.90;;;;;;4994810;28;20117;-79
2021/03/28 04:19:40;;;;;;;38.10;21.05;;;6.60;99.90;;;;;;4994141;28;20086;-80
2021/03/28 04:22:27;;;;;;;33.90;20.95;;;6.80;99.90;;;;;;4994329;28;20077;-82
2021/03/28 04:25:22;;;;;;;30.15;19.33;;;6.70;99.90;;;;;;4994632;28;20061;-82
2021/03/28 04:28:17;;;;;;;28.77;19.65;;;6.40;99.90;;;;;;4995164;28;20022;-81
2021/03/28 04:31:03;;;;;;;31.35;20.95;;;6.40;99.90;;;;;;4994746;28;20490;-77
2021/03/28 04:33:56;;;;;;;31.00;20.88;;;6.50;99.90;;;;;;4977415;28;20037;-79
2021/03/28 04:36:41;;;;;;;33.10;21.30;;;6.30;99.90;;;;;;4994482;28;20037;-79
2021/03/28 04:39:22;;;;;;;31.88;20.77;;;6.20;99.90;;;;;;4977218;28;20509;-83
2021/03/28 04:41:53;;;;;;;33.20;21.40;;;6.30;99.90;;;;;;4976418;28;20082;-81
2021/03/28 04:44:25;;;;;;;33.55;19.30;;;6.50;99.90;;;;;;4995051;28;20378;-83
2021/03/28 04:47:31;;;;;;;30.27;19.48;;;6.40;99.90;;;;;;4977078;28;20409;-82
2021/03/28 04:50:14;;;;;;;29.67;18.25;;;6.40;99.90;;;;;;4994169;28;20382;-80
2021/03/28 04:53:14;;;;;;;28.75;18.15;;;6.40;99.90;;;;;;4976860;28;20031;-80
2021/03/28 04:55:51;;;;;;;31.55;17.95;;;6.60;99.90;;;;;;4977066;28;20022;-82
2021/03/28 04:58:45;;;;;;;28.25;18.10;;;6.80;99.90;;;;;;4994384;28;20018;-78
2021/03/28 05:01:29;;;;;;;26.92;17.65;;;6.70;99.90;;;;;;4976830;28;20096;-79
2021/03/28 05:04:12;;;;;;;34.75;18.55;;;6.70;99.90;;;;;;4994014;28;20106;-78
2021/03/28 05:06:48;;;;;;;28.88;18.15;;;6.80;99.90;;;;;;4993748;28;20027;-80
2021/03/28 05:09:35;;;;;;;31.85;18.80;;;7.00;99.90;;;;;;4994438;28;20033;-79
2021/03/28 05:12:31;;;;;;;21.48;15.73;;;7.10;99.90;;;;;;4976074;28;20023;-77
2021/03/28 05:15:25;;;;;;;20.48;14.95;;;7.10;99.90;;;;;;4994055;28;20444;-79
2021/03/28 05:18:35;;;;;;;20.70;14.35;;;6.70;99.90;;;;;;4993553;28;20034;-77
2021/03/28 05:21:45;;;;;;;21.00;15.18;;;6.70;99.90;;;;;;4915259;28;20074;-77
2021/03/28 05:24:39;;;;;;;24.13;15.23;;;6.80;99.90;;;;;;4995606;28;20096;-76
2021/03/28 05:27:38;;;;;;;23.25;14.68;;;6.90;99.90;;;;;;5013213;28;20022;-82
2021/03/28 05:30:41;;;;;;;26.33;15.93;;;7.00;99.90;;;;;;4995237;28;20413;-79
2021/03/28 05:33:26;;;;;;;24.98;15.82;;;6.90;99.90;;;;;;5013010;28;20018;-77
2021/03/28 05:36:26;;;;;;;26.58;17.40;;;7.00;99.90;;;;;;5013374;28;20022;-80
2021/03/28 05:39:29;;;;;;;22.40;15.50;;;7.20;99.90;;;;;;5013154;28;20053;-78
2021/03/28 05:42:12;;;;;;;27.20;16.58;;;7.40;99.90;;;;;;5012965;28;20034;-79
2021/03/28 05:45:19;;;;;;;25.77;17.05;;;7.40;99.90;;;;;;5012726;28;20022;-79
2021/03/28 05:48:01;;;;;;;24.33;16.63;;;7.50;99.90;;;;;;5012472;28;20030;-78
2021/03/28 05:50:49;;;;;;;23.58;16.70;;;7.40;99.90;;;;;;4994560;28;20041;-79
2021/03/28 05:53:35;;;;;;;24.67;16.48;;;7.30;99.90;;;;;;4994826;28;20631;-79
2021/03/28 05:56:30;;;;;;;27.80;17.17;;;7.10;99.90;;;;;;5002688;28;20113;-81
2021/03/28 05:59:31;;;;;;;23.60;16.42;;;7.00;99.90;;;;;;4995755;28;20065;-81
2021/03/28 06:02:34;;;;;;;27.13;16.20;;;7.10;99.90;;;;;;4967578;28;20393;-80
2021/03/28 06:05:18;;;;;;;24.48;16.48;;;7.00;99.90;;;;;;4992987;28;20034;-78
2021/03/28 06:07:58;;;;;;;24.02;16.42;;;7.10;99.90;;;;;;4992570;28;20034;-81
2021/03/28 06:10:45;;;;;;;32.85;18.80;;;7.40;99.90;;;;;;4975570;28;20073;-80
2021/03/28 06:13:35;;;;;;;28.17;19.67;;;7.50;99.90;;;;;;4992590;28;20034;-80
2021/03/28 06:16:14;;;;;;;31.05;18.77;;;7.60;99.90;;;;;;4974949;28;20026;-81
2021/03/28 06:19:08;;;;;;;29.75;20.15;;;7.50;99.90;;;;;;4992440;28;20449;-78
2021/03/28 06:21:51;;;;;;;30.98;18.55;;;7.50;99.90;;;;;;4992480;28;20066;-79
2021/03/28 06:24:35;;;;;;;30.00;20.25;;;8.00;99.90;;;;;;4992630;28;20113;-78
2021/03/28 06:27:49;;;;;;;30.35;18.10;;;8.30;99.90;;;;;;4992046;28;20532;-79
2021/03/28 06:30:46;;;;;;;25.90;16.52;;;8.50;99.90;;;;;;4906277;28;20448;-82
2021/03/28 06:33:35;;;;;;;28.23;17.55;;;8.60;99.90;;;;;;4992360;28;20045;-79
2021/03/28 06:36:19;;;;;;;32.53;17.95;;;8.70;99.90;;;;;;4947549;28;20034;-80
2021/03/28 06:39:02;;;;;;;29.13;18.42;;;8.90;99.90;;;;;;4992668;28;20077;-79
2021/03/28 06:41:59;;;;;;;25.95;17.08;;;9.10;99.90;;;;;;4993067;28;20038;-81
2021/03/28 06:44:55;;;;;;;24.70;17.30;;;9.20;99.40;;;;;;4996710;28;20019;-82
2021/03/28 06:47:42;;;;;;;26.60;16.52;;;9.20;99.10;;;;;;4996490;28;20026;-81
2021/03/28 06:50:23;;;;;;;25.65;15.43;;;8.70;99.90;;;;;;4996379;28;20085;-80
2021/03/28 06:53:27;;;;;;;23.95;16.58;;;8.60;99.90;;;;;;4978893;28;20027;-79
2021/03/28 06:56:28;;;;;;;24.02;14.90;;;9.20;99.00;;;;;;4996770;28;20057;-79
2021/03/28 06:58:53;;;;;;;;;;;9.40;98.30;;;;;;4996506;28;20077;-78
2021/03/28 07:01:41;;;;;;;23.08;14.40;;;9.60;97.00;;;;;;4978484;28;19917;-80
2021/03/28 07:04:37;;;;;;;20.98;14.20;;;9.70;97.10;;;;;;4995894;28;20027;-80
2021/03/28 07:07:21;;;;;;;20.45;14.60;;;9.60;95.80;;;;;;4996220;28;20030;-79
2021/03/28 07:09:56;;;;;;;22.33;14.48;;;9.80;95.50;;;;;;4996437;28;20034;-77
2021/03/28 07:12:40;;;;;;;19.55;13.32;;;9.70;95.20;;;;;;4996299;28;20101;-78
2021/03/28 07:15:30;;;;;;;22.55;14.63;;;9.60;96.90;;;;;;4978555;28;20041;-80
2021/03/28 07:18:24;;;;;;;27.42;18.67;;;9.50;97.70;;;;;;4980789;28;20062;-79
2021/03/28 07:21:08;;;;;;;26.00;17.45;;;10.10;99.00;;;;;;4966202;28;20077;-82
2021/03/28 07:24:09;;;;;;;79.05;45.75;;;9.30;98.50;;;;;;4978762;28;20019;-82
2021/03/28 07:27:08;;;;;;;91.60;54.08;;;10.40;98.50;;;;;;4978888;28;20445;-82
2021/03/28 07:29:59;;;;;;;39.63;25.52;;;11.30;95.80;;;;;;4978357;28;20105;-82
2021/03/28 07:32:47;;;;;;;29.73;19.40;;;11.20;94.30;;;;;;4978719;28;20085;-81
2021/03/28 07:35:34;;;;;;;24.88;16.45;;;11.20;93.20;;;;;;4985765;28;20034;-78
2021/03/28 07:38:23;;;;;;;23.25;16.67;;;10.60;93.80;;;;;;4967828;28;20022;-79
2021/03/28 07:41:20;;;;;;;21.95;16.52;;;10.40;95.20;;;;;;4972998;28;20085;-81
2021/03/28 07:43:51;;;;;;;26.67;17.38;;;10.20;96.50;;;;;;4972145;28;20027;-82
2021/03/28 07:46:20;;;;;;;23.95;16.55;;;10.40;96.00;;;;;;4973708;28;20081;-82
2021/03/28 07:49:19;;;;;;;25.17;15.75;;;10.60;95.60;;;;;;4973364;28;20031;-80
2021/03/28 07:52:16;;;;;;;24.33;15.13;;;10.60;94.80;;;;;;4993202;28;20029;-80
2021/03/28 07:55:24;;;;;;;24.25;14.95;;;10.80;93.10;;;;;;5010179;28;20385;-79
2021/03/28 07:58:15;;;;;;;20.63;14.25;;;10.80;91.80;;;;;;4974684;28;20029;-83
2021/03/28 08:01:10;;;;;;;24.30;15.93;;;10.80;90.40;;;;;;4991544;28;20038;-82
2021/03/28 08:03:45;;;;;;;21.98;15.52;;;10.80;91.90;;;;;;4976462;28;20038;-81
2021/03/28 08:06:30;;;;;;;26.05;16.88;;;11.00;93.10;;;;;;4974929;28;20077;-81
2021/03/28 08:09:26;;;;;;;26.77;18.73;;;11.40;93.40;;;;;;4994618;28;20049;-83
2021/03/28 08:12:36;;;;;;;27.40;17.58;;;11.30;94.00;;;;;;4993698;28;20037;-84
2021/03/28 08:15:49;;;;;;;22.08;16.42;;;11.40;94.10;;;;;;4995505;28;20394;-79
2021/03/28 08:18:59;;;;;;;20.77;14.45;;;11.70;90.80;;;;;;4982643;28;20402;-80
2021/03/28 08:21:31;;;;;;;20.15;14.00;;;11.70;84.50;;;;;;4971862;28;20355;-79
2021/03/28 08:24:12;;;;;;;22.45;14.63;;;11.80;82.70;;;;;;4971999;28;20030;-81
2021/03/28 08:27:03;;;;;;;23.83;16.27;;;12.00;83.00;;;;;;4990275;28;20027;-83
2021/03/28 08:29:59;;;;;;;44.75;27.15;;;12.30;78.90;;;;;;4974175;28;20370;-82
2021/03/28 08:32:44;;;;;;;28.08;18.33;;;12.60;80.50;;;;;;4975429;28;20058;-82
2021/03/28 08:35:36;;;;;;;23.05;14.48;;;12.50;79.30;;;;;;4980673;28;20112;-80
2021/03/28 08:38:25;;;;;;;20.67;13.85;;;12.90;78.30;;;;;;4996005;28;20516;-80
2021/03/28 08:40:54;;;;;;;20.23;13.85;;;13.40;77.20;;;;;;4992952;28;20044;-78
2021/03/28 08:43:34;;;;;;;22.27;14.77;;;13.30;75.50;;;;;;4993052;28;20363;-82
2021/03/28 08:46:28;;;;;;;20.27;14.80;;;13.10;74.40;;;;;;4974774;28;20030;-82
2021/03/28 08:49:30;;;;;;;23.35;14.93;;;13.20;72.40;;;;;;4990149;28;20105;-80
2021/03/28 08:52:09;;;;;;;19.50;14.23;;;13.00;72.20;;;;;;4973613;28;20058;-79
2021/03/28 08:55:01;;;;;;;21.65;14.55;;;13.20;72.40;;;;;;4974155;28;20070;-79
2021/03/28 08:57:56;;;;;;;23.33;15.55;;;13.70;71.30;;;;;;4973883;28;20026;-80
2021/03/28 09:00:40;;;;;;;26.17;15.85;;;14.00;71.00;;;;;;4958662;28;20487;-78
2021/03/28 09:03:23;;;;;;;28.55;15.75;;;14.10;69.80;;;;;;5013138;28;20485;-81
2021/03/28 09:05:57;;;;;;;21.92;15.50;;;14.10;70.00;;;;;;5012633;28;20377;-82
2021/03/28 09:08:23;;;;;;;24.88;16.55;;;14.40;70.50;;;;;;5013114;28;20033;-78
2021/03/28 09:11:19;;;;;;;22.67;15.25;;;15.00;68.60;;;;;;5012764;28;20033;-81
2021/03/28 09:14:32;;;;;;;20.67;14.32;;;14.90;66.80;;;;;;5012914;28;20105;-79
2021/03/28 09:17:27;;;;;;;27.58;14.95;;;14.90;67.20;;;;;;5012947;28;20065;-80
2021/03/28 09:20:25;;;;;;;18.15;12.57;;;15.40;65.70;;;;;;4986514;28;20037;-80
2021/03/28 09:23:03;;;;;;;15.77;10.70;;;15.80;62.30;;;;;;4995160;28;20528;-81
2021/03/28 09:25:53;;;;;;;14.93;11.15;;;15.80;60.10;;;;;;5013105;28;20052;-79
2021/03/28 09:28:46;;;;;;;15.68;11.45;;;16.40;62.10;;;;;;4994622;28;20112;-80
2021/03/28 09:31:38;;;;;;;48.22;31.70;;;17.10;59.80;;;;;;5011780;28;20029;-80
2021/03/28 09:34:28;;;;;;;53.65;34.30;;;17.50;61.40;;;;;;4994671;28;20446;-80
2021/03/28 09:36:58;;;;;;;29.77;20.10;;;17.70;58.10;;;;;;5012341;28;20103;-82
2021/03/28 09:39:27;;;;;;;26.23;17.63;;;17.80;60.40;;;;;;5012058;28;20034;-77
2021/03/28 09:42:24;;;;;;;46.78;31.38;;;18.00;61.70;;;;;;4990486;28;20037;-78
2021/03/28 09:45:18;;;;;;;32.55;22.50;;;18.10;59.90;;;;;;5004111;28;20053;-79
2021/03/28 09:48:05;;;;;;;24.35;16.48;;;17.80;56.30;;;;;;5011974;28;20018;-79
2021/03/28 09:50:58;;;;;;;64.45;39.78;;;18.00;58.50;;;;;;5011247;28;20064;-77
2021/03/28 09:53:24;;;;;;;63.20;42.92;;;18.40;59.10;;;;;;5004766;28;20031;-77
2021/03/28 09:56:28;;;;;;;30.08;21.50;;;18.60;57.70;;;;;;4992037;28;20030;-78
2021/03/28 09:59:23;;;;;;;35.78;26.52;;;19.10;57.60;;;;;;4991433;28;20537;-79
2021/03/28 10:02:25;;;;;;;26.90;17.15;;;19.60;55.00;;;;;;5002242;28;20077;-78
2021/03/28 10:05:17;;;;;;;14.10;9.52;;;19.50;54.80;;;;;;4991720;28;20558;-77
2021/03/28 10:07:56;;;;;;;37.30;25.00;;;19.60;52.30;;;;;;4991445;28;20389;-77
2021/03/28 10:10:41;;;;;;;34.58;25.17;;;19.70;55.50;;;;;;4973757;28;20393;-78
2021/03/28 10:13:32;;;;;;;24.00;15.52;;;19.80;52.30;;;;;;4976814;28;20552;-78
2021/03/28 10:16:16;;;;;;;26.20;20.30;;;19.90;52.90;;;;;;4999913;28;20041;-78
2021/03/28 10:18:54;;;;;;;28.88;20.08;;;19.60;52.30;;;;;;4993606;28;20018;-79
2021/03/28 10:21:44;;;;;;;16.27;11.35;;;19.50;52.60;;;;;;4993129;28;20085;-80
2021/03/28 10:24:28;;;;;;;;;;;19.40;52.30;;;;;;5012034;28;20087;-80
2021/03/28 10:27:03;;;;;;;12.65;8.10;;;19.50;52.60;;;;;;5011077;28;19905;-80
2021/03/28 10:30:03;;;;;;;15.68;10.35;;;19.40;51.50;;;;;;4993793;28;20571;-79
2021/03/28 10:32:47;;;;;;;11.60;7.80;;;20.00;53.40;;;;;;4974035;28;20022;-80
2021/03/28 10:35:27;;;;;;;9.82;6.90;;;20.50;50.50;;;;;;4992121;28;20085;-80
2021/03/28 10:38:20;;;;;;;12.88;8.30;;;20.10;50.20;;;;;;4992108;28;20046;-83
2021/03/28 10:40:49;;;;;;;10.80;7.10;;;20.20;51.40;;;;;;4991110;28;20037;-79
2021/03/28 10:43:27;;;;;;;11.85;8.60;;;19.60;50.70;;;;;;4998237;28;20084;-79
2021/03/28 10:45:52;;;;;;;11.50;7.97;;;19.90;51.90;;;;;;4990083;28;20496;-80
2021/03/28 10:49:04;;;;;;;11.93;6.90;;;20.70;50.60;;;;;;4990740;28;20121;-79
2021/03/28 10:52:06;;;;;;;10.20;6.35;;;20.60;50.70;;;;;;4941721;28;20046;-81
2021/03/28 10:54:32;;;;;;;9.20;6.40;;;20.30;50.50;;;;;;5004516;28;20022;-80
2021/03/28 10:57:32;;;;;;;9.13;5.93;;;20.20;50.40;;;;;;4993487;28;20025;-77
2021/03/28 11:00:46;;;;;;;9.98;6.82;;;20.00;49.60;;;;;;5011368;28;20030;-77
2021/03/28 11:03:47;;;;;;;31.23;21.95;;;20.20;48.70;;;;;;4938229;28;20041;-80
2021/03/28 11:06:25;;;;;;;53.17;39.42;;;20.40;49.60;;;;;;4949537;28;20104;-79
2021/03/28 11:09:14;;;;;;;13.88;10.45;;;20.90;49.50;;;;;;4991461;28;20088;-81
2021/03/28 11:12:09;;;;;;;12.88;7.43;;;21.00;48.10;;;;;;4974432;28;20223;-81
2021/03/28 11:14:34;;;;;;;12.48;5.88;;;21.00;48.60;;;;;;4991557;28;20076;-81
2021/03/28 11:17:43;;;;;;;11.77;7.57;;;20.80;47.90;;;;;;4991524;28;20447;-79
2021/03/28 11:20:38;;;;;;;12.60;6.78;;;21.30;48.60;;;;;;4990048;28;20072;-82
2021/03/28 11:23:16;;;;;;;9.63;6.20;;;21.10;49.10;;;;;;4904336;28;20044;-82
2021/03/28 11:26:06;;;;;;;9.60;6.05;;;21.60;47.40;;;;;;4972831;28;20026;-84
2021/03/28 11:28:59;;;;;;;9.73;5.97;;;21.40;47.90;;;;;;4993791;28;20042;-83
2021/03/28 11:31:44;;;;;;;8.93;5.78;;;21.40;46.60;;;;;;4992924;28;20023;-81
2021/03/28 11:34:26;;;;;;;9.68;6.55;;;21.60;47.20;;;;;;4993424;28;20027;-81
2021/03/28 11:37:24;;;;;;;13.80;6.32;;;22.00;47.70;;;;;;4977774;28;20061;-79
2021/03/28 11:40:34;;;;;;;11.85;5.78;;;22.80;46.20;;;;;;4995194;28;20080;-80
2021/03/28 11:43:06;;;;;;;9.32;5.95;;;22.40;46.30;;;;;;4989515;28;20528;-81
2021/03/28 11:46:07;;;;;;;12.43;7.07;;;22.90;45.20;;;;;;4995056;28;20094;-84
2021/03/28 11:48:46;;;;;;;11.30;5.55;;;22.10;46.50;;;;;;4975939;28;20057;-83
2021/03/28 11:51:36;;;;;;;8.57;5.15;;;21.50;47.00;;;;;;4979336;28;20101;-82
2021/03/28 11:54:11;;;;;;;8.90;5.68;;;21.90;47.00;;;;;;4983261;28;20367;-82
2021/03/28 11:56:55;;;;;;;9.73;6.32;;;22.30;47.10;;;;;;4996840;28;20022;-79
2021/03/28 11:59:24;;;;;;;11.38;5.90;;;22.00;46.30;;;;;;4996314;28;20030;-84
2021/03/28 12:01:57;;;;;;;9.25;5.57;;;22.00;46.20;;;;;;5003171;28;20045;-82
2021/03/28 12:04:40;;;;;;;14.63;7.07;;;21.30;47.00;;;;;;4976726;28;20386;-81
2021/03/28 12:07:30;;;;;;;9.65;5.72;;;21.70;47.40;;;;;;4978406;28;20034;-79
2021/03/28 12:09:56;;;;;;;;;;;21.60;46.50;;;;;;4995277;28;20027;-85
2021/03/28 12:12:30;;;;;;;32.85;21.90;;;22.30;46.10;;;;;;4997454;28;20355;-85
2021/03/28 12:14:56;;;;;;;43.60;27.30;;;21.40;46.60;;;;;;4994033;28;20034;-81
2021/03/28 12:17:28;;;;;;;69.93;50.45;;;21.00;47.00;;;;;;4992770;28;20026;-82
2021/03/28 12:20:24;;;;;;;48.65;33.45;;;21.20;47.60;;;;;;4976020;28;20030;-79
2021/03/28 12:22:56;;;;;;;55.08;34.15;;;21.30;46.70;;;;;;4993648;28;20248;-84
2021/03/28 12:25:39;;;;;;;13.82;9.07;;;21.70;47.50;;;;;;4986786;28;20034;-80
2021/03/28 12:28:32;;;;;;;12.63;7.97;;;21.90;49.00;;;;;;4978858;28;20026;-82
2021/03/28 12:31:35;;;;;;;15.55;8.40;;;22.40;50.00;;;;;;4993595;28;20425;-83
2021/03/28 12:34:22;;;;;;;12.98;8.30;;;22.50;49.10;;;;;;4994924;28;20160;-82
2021/03/28 12:36:49;;;;;;;11.80;7.03;;;22.10;48.80;;;;;;4995173;28;20049;-80
2021/03/28 12:39:21;;;;;;;13.43;7.00;;;21.40;47.80;;;;;;4993474;28;20085;-85
2021/03/28 12:42:02;;;;;;;14.35;7.20;;;21.50;47.30;;;;;;4993398;28;20042;-85
2021/03/28 12:44:49;;;;;;;11.27;6.85;;;21.10;48.60;;;;;;4977988;28;20382;-82
2021/03/28 12:47:24;;;;;;;9.93;6.53;;;20.60;47.70;;;;;;4994877;28;20027;-83
2021/03/28 12:49:59;;;;;;;11.05;7.28;;;20.50;48.90;;;;;;5008743;28;20050;-84
2021/03/28 12:52:33;;;;;;;12.32;7.78;;;20.50;50.10;;;;;;4980591;28;20491;-83
2021/03/28 12:55:29;;;;;;;12.85;6.28;;;20.90;50.20;;;;;;5005614;28;20375;-80
2021/03/28 12:58:10;;;;;;;9.38;6.68;;;21.60;49.50;;;;;;4979081;28;20034;-84
2021/03/28 13:00:40;;;;;;;33.67;23.77;;;22.40;47.30;;;;;;4986581;28;20038;-80
2021/03/28 13:03:11;;;;;;;18.63;13.50;;;22.10;47.40;;;;;;4996034;28;20046;-85
2021/03/28 13:05:58;;;;;;;17.48;12.32;;;22.30;46.90;;;;;;4994387;28;20026;-83
2021/03/28 13:08:24;;;;;;;13.45;9.75;;;22.50;47.90;;;;;;4994535;28;20401;-84
2021/03/28 13:11:04;;;;;;;14.25;9.00;;;23.20;47.40;;;;;;5001418;28;20665;-83
2021/03/28 13:13:44;;;;;;;14.35;9.05;;;23.70;46.80;;;;;;4992854;28;20038;-76
2021/03/28 13:16:30;;;;;;;12.23;7.80;;;23.40;46.70;;;;;;5007154;28;20030;-79
2021/03/28 13:18:59;;;;;;;10.10;6.95;;;21.70;47.60;;;;;;4996555;28;20097;-84
2021/03/28 13:21:36;;;;;;;13.20;7.88;;;21.70;47.80;;;;;;4981395;28;20042;-86
2021/03/28 13:24:16;;;;;;;12.65;8.40;;;21.20;50.20;;;;;;4985207;28;20035;-84
2021/03/28 13:27:09;;;;;;;12.32;7.78;;;20.50;51.70;;;;;;4996186;28;20022;-78
2021/03/28 13:29:40;;;;;;;18.40;12.05;;;20.10;53.00;;;;;;4990442;28;20121;-86
2021/03/28 13:32:27;;;;;;;25.35;16.65;;;20.30;52.70;;;;;;4992754;28;20034;-83
2021/03/28 13:35:02;;;;;;;25.80;17.08;;;20.30;53.90;;;;;;4995645;28;20096;-78
2021/03/28 13:37:34;;;;;;;19.63;14.77;;;20.50;54.10;;;;;;4977051;28;20085;-78
2021/03/28 13:40:03;;;;;;;15.82;9.40;;;19.90;55.50;;;;;;4995187;28;20033;-82
2021/03/28 13:42:37;;;;;;;13.80;9.35;;;19.90;53.60;;;;;;4995677;28;20030;-89
2021/03/28 13:45:06;;;;;;;13.65;9.73;;;19.60;55.50;;;;;;4981759;28;20030;-82
2021/03/28 13:48:28;;;;;;;17.77;9.90;;;19.60;56.10;;;;;;4992720;28;20394;-80
2021/03/28 13:51:18;;;;;;;14.32;8.40;;;19.30;57.30;;;;;;4971329;28;20034;-80
2021/03/28 13:54:05;;;;;;;16.55;9.77;;;19.20;57.80;;;;;;4975213;28;20034;-80
2021/03/28 13:56:57;;;;;;;17.02;10.45;;;18.80;60.00;;;;;;4992636;28;20390;-82
2021/03/28 13:59:29;;;;;;;17.90;10.15;;;18.70;61.10;;;;;;4982900;28;20121;-78
2021/03/28 14:02:20;;;;;;;16.65;11.55;;;18.30;61.60;;;;;;4993994;28;20049;-75
2021/03/28 14:05:06;;;;;;;25.45;11.10;;;18.20;63.00;;;;;;4989623;28;20027;-78
2021/03/28 14:07:41;;;;;;;18.42;11.90;;;17.90;64.20;;;;;;4990077;28;20026;-78
2021/03/28 14:10:27;;;;;;;17.65;11.10;;;17.80;65.00;;;;;;4993003;28;20026;-78
2021/03/28 14:13:15;;;;;;;15.82;11.55;;;17.70;66.10;;;;;;4989491;28;20148;-80
2021/03/28 14:15:48;;;;;;;18.98;11.20;;;17.50;68.10;;;;;;4977150;28;20374;-79